createdAt,value
2023-04-14T00:00:13.137Z,9
2023-04-14T00:05:51.327Z,9.1
2023-04-14T00:11:43.970Z,9.2
2023-04-14T00:17:36.747Z,9.3
2023-04-14T00:23:28.682Z,9.2
2023-04-14T00:29:20.344Z,9.2
2023-04-14T00:34:56.670Z,9.2
2023-04-14T00:40:48.562Z,9.2
2023-04-14T00:46:40.333Z,9.2
2023-04-14T00:52:31.815Z,9.3
2023-04-14T00:58:08.749Z,9.3
2023-04-14T01:03:31.251Z,9.3
2023-04-14T01:09:38.742Z,9.3
2023-04-14T01:15:30.474Z,9.3
2023-04-14T01:21:22.237Z,9.2
2023-04-14T01:26:58.301Z,9.2
2023-04-14T01:32:50.950Z,9.2
2023-04-14T01:38:41.996Z,9.2
2023-04-14T01:44:33.986Z,9.3
2023-04-14T01:50:11.531Z,9.3
2023-04-14T01:56:03.749Z,9.3
2023-04-14T02:01:55.673Z,9.3
2023-04-14T02:07:48.173Z,9.2
2023-04-14T02:13:39.679Z,9.2
2023-04-14T02:19:30.570Z,9.1
2023-04-14T02:25:22.255Z,9.1
2023-04-14T02:31:13.454Z,9
2023-04-14T02:37:04.433Z,8.9
2023-04-14T02:42:55.832Z,8.9
2023-04-14T02:48:47.165Z,8.9
2023-04-14T02:54:38.673Z,8.8
2023-04-14T03:00:30.656Z,8.8
2023-04-14T03:06:23.147Z,8.8
2023-04-14T03:12:14.319Z,8.7
2023-04-14T03:17:50.195Z,8.6
2023-04-14T03:23:26.050Z,8.6
2023-04-14T03:29:18.597Z,8.5
2023-04-14T03:35:10.199Z,8.6
2023-04-14T03:41:02.425Z,8.7
2023-04-14T03:46:56.228Z,8.7
2023-04-14T03:52:50.202Z,8.8
2023-04-14T03:58:44.143Z,8.8
2023-04-14T04:04:38.614Z,8.7
2023-04-14T04:10:30.808Z,8.5
2023-04-14T04:16:23.443Z,8.5
2023-04-14T04:22:15.401Z,8.5
2023-04-14T04:28:21.753Z,8.4
2023-04-14T04:34:14.166Z,8.4
2023-04-14T04:40:06.179Z,8.4
2023-04-14T04:45:42.073Z,8.5
2023-04-14T04:51:18.010Z,8.7
2023-04-14T04:56:53.765Z,8.8
2023-04-14T05:02:17.396Z,9
2023-04-14T05:07:53.720Z,9.3
2023-04-14T05:13:32.381Z,9.4
2023-04-14T05:19:09.021Z,9.8
2023-04-14T05:24:44.861Z,10.3
2023-04-14T05:31:01.218Z,11
2023-04-14T05:36:23.823Z,11.6
2023-04-14T05:42:00.016Z,12.3
2023-04-14T05:47:52.304Z,13.1
2023-04-14T05:53:29.077Z,13.9
2023-04-14T05:59:05.786Z,14.9
2023-04-14T06:05:04.441Z,15.9
2023-04-14T06:10:40.625Z,16.6
2023-04-14T06:21:53.159Z,17.6
2023-04-14T06:27:44.730Z,18.3
2023-04-14T06:33:21.751Z,19.3
2023-04-14T06:39:25.988Z,20.4
2023-04-14T06:45:17.715Z,21.6
2023-04-14T06:51:10.772Z,22.4
2023-04-14T06:57:02.910Z,23.4
2023-04-14T07:02:55.816Z,24.6
2023-04-14T07:08:49.128Z,26.3
2023-04-14T07:14:41.273Z,28.8
2023-04-14T07:20:19.649Z,30.6
2023-04-14T07:26:10.716Z,32.6
2023-04-14T07:32:16.115Z,35.8
2023-04-14T07:38:19.860Z,37.1
2023-04-14T07:43:55.632Z,31.2
2023-04-14T07:49:48.207Z,33.1
2023-04-14T07:55:42.842Z,39.6
2023-04-14T08:01:24.465Z,40.2
2023-04-14T08:07:18.005Z,41.4
2023-04-14T08:12:53.970Z,41.6
2023-04-14T08:18:14.724Z,41.7
2023-04-14T08:23:51.458Z,41.9
2023-04-14T08:29:28.272Z,41.6
2023-04-14T08:36:18.007Z,41.7
2023-04-14T08:42:11.929Z,42.3
2023-04-14T08:48:04.552Z,44.8
2023-04-14T08:53:42.161Z,47.5
2023-04-14T08:59:34.174Z,48.9
2023-04-14T09:05:29.556Z,51.4
2023-04-14T09:11:21.636Z,52.4
2023-04-14T09:17:12.906Z,52.6
2023-04-14T09:25:00.117Z,54.7
2023-04-14T09:30:35.560Z,56
2023-04-14T09:36:12.249Z,54.3
2023-04-14T09:42:03.566Z,56.5
2023-04-14T09:47:39.658Z,59.8
2023-04-14T09:53:31.335Z,60.7
2023-04-14T09:59:25.729Z,61.2
2023-04-14T10:05:19.611Z,61.2
2023-04-14T10:10:55.586Z,61.6
2023-04-14T10:16:47.412Z,60.2
2023-04-14T10:22:40.935Z,61.3
2023-04-14T10:28:34.256Z,54.1
2023-04-14T10:34:26.950Z,43.5
2023-04-14T10:40:02.467Z,38.6
2023-04-14T10:45:53.873Z,34.1
2023-04-14T10:51:46.549Z,30.7
2023-04-14T10:57:36.526Z,28.2
2023-04-14T11:03:31.420Z,26.1
2023-04-14T11:09:23.879Z,24.4
2023-04-14T11:15:01.746Z,23.1
2023-04-14T11:21:04.951Z,21.7
2023-04-14T11:26:56.098Z,20.5
2023-04-14T11:32:49.577Z,19.6
2023-04-14T11:38:25.972Z,19
2023-04-14T11:44:18.240Z,18.5
2023-04-14T11:50:08.994Z,17.9
2023-04-14T11:55:45.620Z,17.3
2023-04-14T12:01:22.370Z,16.4
2023-04-14T12:07:00.723Z,15.9
2023-04-14T12:12:55.331Z,15.4
2023-04-14T12:18:16.834Z,15.1
2023-04-14T12:23:37.665Z,14.8
2023-04-14T12:29:29.448Z,14.6
2023-04-14T12:35:23.141Z,14.9
2023-04-14T12:41:14.380Z,16
2023-04-14T12:46:50.891Z,20
2023-04-14T12:52:43.586Z,27.3
2023-04-14T12:58:35.728Z,33.4
2023-04-14T13:04:31.552Z,37.7
2023-04-14T13:10:25.475Z,40.9
2023-04-14T13:17:11.570Z,40.6
2023-04-14T13:23:06.006Z,39.8
2023-04-14T13:28:58.036Z,39.8
2023-04-14T13:34:35.230Z,38.9
2023-04-14T13:40:28.158Z,35.6
2023-04-14T13:46:22.317Z,32.3
2023-04-14T13:52:17.306Z,29.3
2023-04-14T13:58:10.893Z,27.2
2023-04-14T14:04:06.746Z,25.9
2023-04-14T14:10:01.390Z,24.6
2023-04-14T14:15:53.837Z,23.7
2023-04-14T14:21:40.328Z,23.4
2023-04-14T14:27:29.219Z,23.1
2023-04-14T14:33:24.730Z,22.9
2023-04-14T14:39:17.606Z,22.6
2023-04-14T14:45:11.974Z,22.4
2023-04-14T14:51:17.525Z,22.1
2023-04-14T14:57:18.546Z,21.9
2023-04-14T15:02:55.846Z,21.9
2023-04-14T15:08:48.778Z,21.9
2023-04-14T15:14:40.870Z,22.9
2023-04-14T15:20:32.786Z,23.2
2023-04-14T15:26:24.235Z,23.1
2023-04-14T15:32:16.196Z,23.5
2023-04-14T15:38:08.221Z,23.3
2023-04-14T15:44:00.645Z,22.9
2023-04-14T15:50:00.637Z,22.5
2023-04-14T15:56:05.609Z,21.9
2023-04-14T16:01:57.512Z,21.3
2023-04-14T16:07:50.870Z,20.6
2023-04-14T16:13:44.048Z,19.9
2023-04-14T16:19:37.704Z,19.2
2023-04-14T16:25:29.474Z,18.3
2023-04-14T16:31:21.542Z,17.4
2023-04-14T16:37:13.327Z,16.7
2023-04-14T16:43:05.140Z,16.1
2023-04-14T16:48:57.448Z,15.5
2023-04-14T16:54:49.623Z,14.9
2023-04-14T17:00:41.619Z,14.4
2023-04-14T17:06:39.012Z,13.8
2023-04-14T17:12:30.784Z,13.2
2023-04-14T17:18:30.454Z,12.8
2023-04-14T17:24:23.586Z,12.3
2023-04-14T17:30:15.501Z,11.8
2023-04-14T17:36:07.268Z,11.4
2023-04-14T17:41:58.864Z,11.1
2023-04-14T17:47:51.096Z,10.8
2023-04-14T17:53:28.659Z,10.7
2023-04-14T17:59:20.639Z,10.4
2023-04-14T18:05:14.463Z,10.5
2023-04-14T18:11:05.825Z,10.5
2023-04-14T18:16:57.236Z,10.4
2023-04-14T18:22:48.745Z,10.4
2023-04-14T18:29:06.223Z,10.3
2023-04-14T18:34:58.472Z,10.1
2023-04-14T18:40:49.971Z,10.1
2023-04-14T18:46:41.744Z,10.2
2023-04-14T18:52:17.825Z,10.2
2023-04-14T18:58:20.118Z,10.1
2023-04-14T19:03:57.298Z,10
2023-04-14T19:09:48.810Z,9.8
2023-04-14T19:15:36.676Z,9.8
2023-04-14T19:21:13.235Z,9.8
2023-04-14T19:26:49.563Z,9.8
2023-04-14T19:32:27.411Z,9.8
2023-04-14T19:38:04.101Z,9.8
2023-04-14T19:43:55.600Z,9.7
2023-04-14T19:49:44.269Z,9.7
2023-04-14T19:55:35.877Z,9.6
2023-04-14T20:01:29.007Z,9.4
2023-04-14T20:07:52.678Z,9
2023-04-14T20:13:44.506Z,8.6
2023-04-14T20:19:36.468Z,8.3
2023-04-14T20:25:27.718Z,7.9
2023-04-14T20:31:20.104Z,7.7
2023-04-14T20:37:11.642Z,7.4
2023-04-14T20:43:02.629Z,7.2
2023-04-14T20:48:54.773Z,6.9
2023-04-14T20:54:30.661Z,6.8
2023-04-14T21:00:21.365Z,6.7
2023-04-14T21:06:15.121Z,6.5
2023-04-14T21:16:10.857Z,6.3
2023-04-14T21:22:03.170Z,6.2
2023-04-14T21:27:54.285Z,6.1
2023-04-14T21:33:45.425Z,6.1
2023-04-14T21:39:22.525Z,6.1
2023-04-14T21:44:58.083Z,6.1
2023-04-14T21:50:50.701Z,6
2023-04-14T21:57:04.579Z,6
2023-04-14T22:03:24.628Z,6.1
2023-04-14T22:09:27.050Z,6.1
2023-04-14T22:15:20.299Z,6.1
2023-04-14T22:20:56.364Z,6.2
2023-04-14T22:26:32.107Z,6.2
2023-04-14T22:32:09.410Z,6.2
2023-04-14T22:37:45.778Z,6.3
2023-04-14T22:43:37.015Z,6.3
2023-04-14T22:49:29.723Z,6.3
2023-04-14T22:55:27.866Z,6.1
2023-04-14T23:01:29.525Z,5.9
2023-04-14T23:07:23.518Z,5.8
2023-04-14T23:13:15.330Z,5.8
2023-04-14T23:19:05.593Z,5.7
2023-04-14T23:24:57.341Z,5.6
2023-04-14T23:30:34.031Z,5.5
2023-04-14T23:36:25.442Z,5.5
2023-04-14T23:42:17.246Z,5.5
2023-04-14T23:48:08.859Z,5.5
2023-04-14T23:54:58.627Z,5.4
